createdAt,value
2023-05-22T00:02:05.970Z,99762.34
2023-05-22T00:04:38.951Z,99764.38
2023-05-22T00:07:09.658Z,99760.56
2023-05-22T00:09:39.909Z,99756.44
2023-05-22T00:12:10.625Z,99761.25
2023-05-22T00:14:40.883Z,99761.34
2023-05-22T00:17:15.329Z,99754.97
2023-05-22T00:19:48.318Z,99767.97
2023-05-22T00:22:18.645Z,99770.59
2023-05-22T00:24:49.025Z,99773.88
2023-05-22T00:27:21.621Z,99759.22
2023-05-22T00:29:51.921Z,99758.94
2023-05-22T00:32:21.901Z,99777.91
2023-05-22T00:34:54.816Z,99775.78
2023-05-22T00:37:25.803Z,99773.94
2023-05-22T00:39:56.060Z,99779.28
2023-05-22T00:42:26.068Z,99784.09
2023-05-22T00:44:56.565Z,99791.47
2023-05-22T00:47:27.391Z,99781.91
2023-05-22T00:50:00.896Z,99785.75
2023-05-22T00:52:31.155Z,99782.91
2023-05-22T00:55:04.097Z,99777.78
2023-05-22T00:57:36.603Z,99781.75
2023-05-22T01:00:09.138Z,99789.19
2023-05-22T01:02:40.193Z,99778.63
2023-05-22T01:05:18.518Z,99776.59
2023-05-22T01:07:49.099Z,99769.88
2023-05-22T01:10:19.553Z,99779.22
2023-05-22T01:12:58.427Z,99775.22
2023-05-22T01:15:39.824Z,99771.97
2023-05-22T01:18:20.047Z,99772.34
2023-05-22T01:20:58.438Z,99770.22
2023-05-22T01:24:07.419Z,99777.28
2023-05-22T01:27:07.421Z,99772.19
2023-05-22T01:29:46.822Z,99762.16
2023-05-22T01:32:23.811Z,99768.16
2023-05-22T01:34:57.129Z,99768.84
2023-05-22T01:37:28.145Z,99770.19
2023-05-22T01:39:59.069Z,99765.34
2023-05-22T01:42:30.552Z,99762.00
2023-05-22T01:45:01.129Z,99760.25
2023-05-22T01:47:35.860Z,99764.56
2023-05-22T01:50:06.517Z,99771.97
2023-05-22T01:52:43.644Z,99762.72
2023-05-22T01:55:18.848Z,99758.94
2023-05-22T01:57:57.229Z,99763.81
2023-05-22T02:00:30.065Z,99758.41
2023-05-22T02:03:10.632Z,99757.69
2023-05-22T02:05:42.499Z,99754.72
2023-05-22T02:08:15.335Z,99753.38
2023-05-22T02:10:46.630Z,99750.38
2023-05-22T02:13:18.947Z,99758.44
2023-05-22T02:15:50.534Z,99760.59
2023-05-22T02:18:24.336Z,99762.09
2023-05-22T02:20:54.707Z,99760.09
2023-05-22T02:23:24.685Z,99758.09
2023-05-22T02:25:55.773Z,99763.78
2023-05-22T02:28:26.285Z,99751.44
2023-05-22T02:30:56.554Z,99760.44
2023-05-22T02:33:30.176Z,99761.13
2023-05-22T02:36:00.455Z,99760.13
2023-05-22T02:38:30.430Z,99752.31
2023-05-22T02:41:00.734Z,99751.50
2023-05-22T02:43:30.618Z,99756.53
2023-05-22T02:46:01.076Z,99751.19
2023-05-22T02:48:34.023Z,99749.88
2023-05-22T02:51:04.297Z,99749.75
2023-05-22T02:53:35.567Z,99755.56
2023-05-22T02:56:06.219Z,99745.56
2023-05-22T02:58:36.663Z,99752.56
2023-05-22T03:01:07.079Z,99744.25
2023-05-22T03:03:40.100Z,99741.41
2023-05-22T03:06:10.716Z,99749.75
2023-05-22T03:08:43.751Z,99748.28
2023-05-22T03:11:14.384Z,99742.94
2023-05-22T03:13:44.622Z,99747.75
2023-05-22T03:16:14.901Z,99745.59
2023-05-22T03:18:47.562Z,99737.09
2023-05-22T03:21:17.834Z,99748.56
2023-05-22T03:23:48.162Z,99748.25
2023-05-22T03:26:18.585Z,99744.41
2023-05-22T03:28:50.873Z,99744.06
2023-05-22T03:31:21.209Z,99741.56
2023-05-22T03:33:54.350Z,99755.56
2023-05-22T03:36:25.487Z,99746.88
2023-05-22T03:38:56.866Z,99749.88
2023-05-22T03:41:27.061Z,99752.19
2023-05-22T03:43:57.574Z,99755.19
2023-05-22T03:46:28.022Z,99756.34
2023-05-22T03:49:00.961Z,99752.97
2023-05-22T03:51:31.745Z,99754.63
2023-05-22T03:54:02.345Z,99754.78
2023-05-22T03:56:32.901Z,99748.28
2023-05-22T03:59:04.342Z,99753.59
2023-05-22T04:01:34.951Z,99752.41
2023-05-22T04:04:09.796Z,99756.34
2023-05-22T04:06:43.563Z,99758.13
2023-05-22T04:09:14.594Z,99758.13
2023-05-22T04:11:44.930Z,99756.13
2023-05-22T04:14:15.962Z,99755.41
2023-05-22T04:16:50.433Z,99764.47
2023-05-22T04:19:23.650Z,99757.97
2023-05-22T04:21:54.976Z,99759.78
2023-05-22T04:24:25.741Z,99749.66
2023-05-22T04:26:56.418Z,99754.34
2023-05-22T04:29:26.692Z,99752.09
2023-05-22T04:31:57.189Z,99760.41
2023-05-22T04:34:30.464Z,99761.72
2023-05-22T04:37:00.739Z,99762.59
2023-05-22T04:39:31.480Z,99760.22
2023-05-22T04:42:06.577Z,99759.19
2023-05-22T04:44:37.250Z,99760.03
2023-05-22T04:47:11.630Z,99755.84
2023-05-22T04:49:45.920Z,99760.28
2023-05-22T04:52:18.842Z,99756.66
2023-05-22T04:54:56.525Z,99755.72
2023-05-22T04:57:30.145Z,99751.19
2023-05-22T05:00:01.473Z,99755.66
2023-05-22T05:02:31.797Z,99750.72
2023-05-22T05:05:04.782Z,99750.06
2023-05-22T05:07:35.078Z,99751.69
2023-05-22T05:10:05.331Z,99749.97
2023-05-22T05:12:35.674Z,99751.28
2023-05-22T05:15:09.233Z,99757.84
2023-05-22T05:17:42.069Z,99750.50
2023-05-22T05:20:16.163Z,99762.47
2023-05-22T05:22:46.688Z,99757.38
2023-05-22T05:25:17.117Z,99761.44
2023-05-22T05:27:47.461Z,99759.56
2023-05-22T05:30:20.770Z,99760.28
2023-05-22T05:32:51.200Z,99761.41
2023-05-22T05:35:24.077Z,99765.75
2023-05-22T05:37:54.764Z,99765.28
2023-05-22T05:40:25.064Z,99770.19
2023-05-22T05:42:55.350Z,99769.47
2023-05-22T05:45:25.688Z,99775.53
2023-05-22T05:47:56.198Z,99772.69
2023-05-22T05:50:29.271Z,99769.69
2023-05-22T05:53:02.152Z,99771.75
2023-05-22T05:55:34.761Z,99770.16
2023-05-22T05:58:05.152Z,99770.94
2023-05-22T06:00:38.456Z,99767.53
2023-05-22T06:03:08.937Z,99776.09
2023-05-22T06:05:45.016Z,99781.63
2023-05-22T06:08:16.459Z,99778.91
2023-05-22T06:10:46.830Z,99780.41
2023-05-22T06:13:17.467Z,99769.72
2023-05-22T06:15:48.709Z,99791.09
2023-05-22T06:18:19.227Z,99778.78
2023-05-22T06:20:52.089Z,99773.84
2023-05-22T06:23:22.421Z,99768.16
2023-05-22T06:25:53.453Z,99774.06
2023-05-22T06:28:23.745Z,99778.06
2023-05-22T06:30:54.080Z,99775.31
2023-05-22T06:33:26.961Z,99774.91
2023-05-22T06:35:59.919Z,99779.38
2023-05-22T06:38:30.206Z,99761.84
2023-05-22T06:41:00.741Z,99771.75
2023-05-22T06:43:30.963Z,99773.44
2023-05-22T06:46:01.492Z,99770.72
2023-05-22T06:48:33.882Z,99768.31
2023-05-22T06:51:07.190Z,99775.31
2023-05-22T06:53:37.649Z,99771.50
2023-05-22T06:56:11.090Z,99764.97
2023-05-22T06:58:42.724Z,99764.56
2023-05-22T07:01:13.307Z,99774.41
2023-05-22T07:03:43.649Z,99766.09
2023-05-22T07:06:16.652Z,99770.09
2023-05-22T07:08:49.407Z,99770.53
2023-05-22T07:11:20.290Z,99767.75
2023-05-22T07:13:53.057Z,99769.84
2023-05-22T07:16:23.654Z,99762.38
2023-05-22T07:18:59.585Z,99776.78
2023-05-22T07:21:32.817Z,99762.34
2023-05-22T07:24:08.674Z,99763.97
2023-05-22T07:26:39.225Z,99762.56
2023-05-22T07:29:09.680Z,99761.66
2023-05-22T07:31:40.058Z,99766.41
2023-05-22T07:34:10.410Z,99764.53
2023-05-22T07:36:44.532Z,99769.53
2023-05-22T07:39:15.862Z,99767.41
2023-05-22T07:41:51.016Z,99762.47
2023-05-22T07:44:21.322Z,99773.69
2023-05-22T07:46:52.294Z,99762.53
2023-05-22T07:49:23.938Z,99762.59
2023-05-22T07:51:56.819Z,99758.16
2023-05-22T07:54:27.094Z,99757.81
2023-05-22T07:56:57.749Z,99765.00
2023-05-22T07:59:28.175Z,99759.03
2023-05-22T08:01:58.653Z,99762.97
2023-05-22T08:04:30.289Z,99756.47
2023-05-22T08:07:03.533Z,99757.84
2023-05-22T08:09:33.782Z,99754.56
2023-05-22T08:12:04.158Z,99750.13
2023-05-22T08:14:37.896Z,99759.00
2023-05-22T08:17:08.913Z,99754.53
2023-05-22T08:19:39.342Z,99755.13
2023-05-22T08:22:12.469Z,99755.16
2023-05-22T08:24:42.706Z,99756.31
2023-05-22T08:27:12.905Z,99751.34
2023-05-22T08:29:43.127Z,99756.75
2023-05-22T08:32:14.660Z,99759.69
2023-05-22T08:34:46.418Z,99749.94
2023-05-22T08:37:22.031Z,99755.38
2023-05-22T08:39:52.277Z,99755.28
2023-05-22T08:42:22.630Z,99752.91
2023-05-22T08:44:53.050Z,99756.44
2023-05-22T08:47:24.553Z,99746.53
2023-05-22T08:49:58.285Z,99737.47
2023-05-22T08:52:36.227Z,99744.59
2023-05-22T08:55:09.552Z,99744.50
2023-05-22T08:57:40.299Z,99743.72
2023-05-22T09:00:12.235Z,99739.00
2023-05-22T09:02:42.863Z,99750.91
2023-05-22T09:05:14.592Z,99744.22
2023-05-22T09:07:49.170Z,99737.59
2023-05-22T09:10:19.645Z,99749.53
2023-05-22T09:13:05.325Z,99739.00
2023-05-22T09:15:36.267Z,99739.28
2023-05-22T09:18:07.510Z,99741.66
2023-05-22T09:20:39.085Z,99739.88
2023-05-22T09:23:18.069Z,99740.28
2023-05-22T09:25:48.560Z,99737.03
2023-05-22T09:28:18.944Z,99740.97
2023-05-22T09:30:52.065Z,99733.00
2023-05-22T09:33:23.088Z,99725.13
2023-05-22T09:35:55.640Z,99730.16
2023-05-22T09:38:31.829Z,99729.19
2023-05-22T09:41:02.121Z,99726.19
2023-05-22T09:43:32.397Z,99725.41
2023-05-22T09:46:05.311Z,99721.06
2023-05-22T09:48:39.114Z,99728.16
2023-05-22T09:51:10.546Z,99730.53
2023-05-22T09:53:46.068Z,99725.78
2023-05-22T09:56:27.225Z,99731.22
2023-05-22T09:59:07.898Z,99726.16
2023-05-22T10:01:39.371Z,99736.69
2023-05-22T10:04:15.540Z,99732.19
2023-05-22T10:06:53.753Z,99726.50
2023-05-22T10:09:32.950Z,99720.41
2023-05-22T10:12:08.665Z,99713.41
2023-05-22T10:14:39.471Z,99707.06
2023-05-22T10:17:12.486Z,99712.91
2023-05-22T10:19:46.813Z,99710.22
2023-05-22T10:22:21.112Z,99701.25
2023-05-22T10:24:54.514Z,99701.47
2023-05-22T10:27:24.760Z,99693.72
2023-05-22T10:30:01.073Z,99696.41
2023-05-22T10:32:38.607Z,99697.34
2023-05-22T10:35:20.756Z,99693.81
2023-05-22T10:37:54.038Z,99685.56
2023-05-22T10:40:33.623Z,99697.25
2023-05-22T10:43:05.375Z,99683.84
2023-05-22T10:45:37.011Z,99694.41
2023-05-22T10:48:08.774Z,99676.97
2023-05-22T10:50:42.968Z,99684.34
2023-05-22T10:53:24.220Z,99673.44
2023-05-22T10:55:59.381Z,99674.44
2023-05-22T10:58:32.054Z,99672.75
2023-05-22T11:01:16.619Z,99676.50
2023-05-22T11:04:00.925Z,99675.25
2023-05-22T11:06:39.553Z,99659.50
2023-05-22T11:09:35.285Z,99669.28
2023-05-22T11:12:28.886Z,99659.47
2023-05-22T11:15:00.531Z,99650.94
2023-05-22T11:17:32.711Z,99645.97
2023-05-22T11:20:08.527Z,99650.34
2023-05-22T11:22:42.573Z,99649.53
2023-05-22T11:25:14.191Z,99648.88
2023-05-22T11:27:47.912Z,99652.16
2023-05-22T11:30:19.521Z,99648.06
2023-05-22T11:32:50.392Z,99646.78
2023-05-22T11:35:25.178Z,99643.81
2023-05-22T11:37:57.273Z,99645.28
2023-05-22T11:40:31.337Z,99648.44
2023-05-22T11:43:04.948Z,99650.16
2023-05-22T11:45:40.113Z,99648.00
2023-05-22T11:48:15.283Z,99640.78
2023-05-22T11:50:46.981Z,99648.47
2023-05-22T11:53:17.563Z,99646.66
2023-05-22T11:55:51.212Z,99642.00
2023-05-22T11:58:30.807Z,99647.31
2023-05-22T12:01:02.165Z,99636.94
2023-05-22T12:03:33.497Z,99639.72
2023-05-22T12:06:05.789Z,99632.41
2023-05-22T12:08:36.249Z,99633.59
2023-05-22T12:11:08.198Z,99626.69
2023-05-22T12:13:41.582Z,99625.47
2023-05-22T12:16:23.036Z,99626.88
2023-05-22T12:18:56.412Z,99615.00
2023-05-22T12:21:30.206Z,99626.13
2023-05-22T12:24:00.966Z,99618.75
2023-05-22T12:26:31.250Z,99620.31
2023-05-22T12:29:05.019Z,99616.66
2023-05-22T12:31:40.748Z,99613.63
2023-05-22T12:34:11.156Z,99619.44
2023-05-22T12:36:42.755Z,99607.22
2023-05-22T12:39:20.309Z,99607.03
2023-05-22T12:41:50.887Z,99601.22
2023-05-22T12:44:23.752Z,99590.69
2023-05-22T12:46:55.668Z,99594.09
2023-05-22T12:49:26.233Z,99600.81
2023-05-22T12:51:56.599Z,99599.94
2023-05-22T12:54:26.925Z,99593.13
2023-05-22T12:56:57.175Z,99591.19
2023-05-22T12:59:31.306Z,99578.09
2023-05-22T13:02:02.537Z,99585.03
2023-05-22T13:04:33.240Z,99575.53
2023-05-22T13:07:03.721Z,99577.34
2023-05-22T13:09:33.982Z,99571.63
2023-05-22T13:12:04.322Z,99575.69
2023-05-22T13:14:39.187Z,99558.75
2023-05-22T13:17:09.997Z,99569.91
2023-05-22T13:19:43.303Z,99563.72
2023-05-22T13:22:13.653Z,99559.06
2023-05-22T13:24:46.711Z,99558.72
2023-05-22T13:27:19.732Z,99562.44
2023-05-22T13:29:52.639Z,99562.47
2023-05-22T13:32:23.379Z,99562.69
2023-05-22T13:34:53.671Z,99559.53
2023-05-22T13:37:24.196Z,99557.84
2023-05-22T13:39:54.511Z,99551.72
2023-05-22T13:42:24.701Z,99556.91
2023-05-22T13:44:58.692Z,99557.41
2023-05-22T13:47:29.148Z,99556.75
2023-05-22T13:49:59.559Z,99558.31
2023-05-22T13:52:30.963Z,99546.03
2023-05-22T13:55:01.691Z,99547.63
2023-05-22T13:57:32.015Z,99545.91
2023-05-22T14:00:04.972Z,99543.00
2023-05-22T14:02:35.600Z,99543.56
2023-05-22T14:05:06.168Z,99544.38
2023-05-22T14:07:36.491Z,99545.38
2023-05-22T14:10:07.388Z,99547.44
2023-05-22T14:12:37.811Z,99546.88
2023-05-22T14:15:11.990Z,99534.53
2023-05-22T14:17:45.756Z,99529.50
2023-05-22T14:20:16.283Z,99538.72
2023-05-22T14:22:57.061Z,99539.16
2023-05-22T14:25:28.820Z,99533.00
2023-05-22T14:27:59.198Z,99535.53
2023-05-22T14:30:32.178Z,99537.53
2023-05-22T14:33:02.520Z,99530.97
2023-05-22T14:35:32.907Z,99540.06
2023-05-22T14:38:03.388Z,99537.94
2023-05-22T14:40:34.803Z,99530.28
2023-05-22T14:43:05.448Z,99524.19
2023-05-22T14:45:38.509Z,99525.19
2023-05-22T14:48:11.107Z,99524.53
2023-05-22T14:50:41.593Z,99520.50
2023-05-22T14:53:11.967Z,99521.91
2023-05-22T14:55:42.481Z,99522.91
2023-05-22T14:58:12.956Z,99521.56
2023-05-22T15:00:47.425Z,99515.34
2023-05-22T15:03:19.426Z,99524.13
2023-05-22T15:05:49.870Z,99521.19
2023-05-22T15:08:20.314Z,99523.06
2023-05-22T15:10:51.090Z,99527.31
2023-05-22T15:13:21.790Z,99516.97
2023-05-22T15:15:54.757Z,99518.78
2023-05-22T15:18:26.832Z,99524.53
2023-05-22T15:20:57.251Z,99515.34
2023-05-22T15:23:27.585Z,99519.84
2023-05-22T15:25:59.804Z,99525.94
2023-05-22T15:28:30.147Z,99516.59
2023-05-22T15:31:04.686Z,99524.19
2023-05-22T15:33:34.988Z,99516.00
2023-05-22T15:36:07.543Z,99510.41
2023-05-22T15:38:37.847Z,99515.59
2023-05-22T15:41:08.323Z,99507.34
2023-05-22T15:43:40.861Z,99509.66
2023-05-22T15:46:16.861Z,99498.59
2023-05-22T15:48:47.276Z,99502.34
2023-05-22T15:51:17.742Z,99509.22
2023-05-22T15:53:48.076Z,99505.81
2023-05-22T15:56:21.713Z,99500.34
2023-05-22T15:58:52.030Z,99501.09
2023-05-22T16:01:24.982Z,99497.88
2023-05-22T16:03:55.401Z,99496.47
2023-05-22T16:06:25.668Z,99502.13
2023-05-22T16:08:55.970Z,99512.13
2023-05-22T16:11:26.274Z,99508.47
2023-05-22T16:13:56.751Z,99502.94
2023-05-22T16:16:29.685Z,99507.78
2023-05-22T16:19:00.185Z,99502.28
2023-05-22T16:21:30.588Z,99501.84
2023-05-22T16:24:01.068Z,99504.19
2023-05-22T16:26:31.348Z,99497.94
2023-05-22T16:29:01.615Z,99506.50
2023-05-22T16:31:35.725Z,99501.13
2023-05-22T16:34:06.264Z,99512.56
2023-05-22T16:36:36.524Z,99511.16
2023-05-22T16:39:06.903Z,99512.94
2023-05-22T16:41:37.393Z,99510.59
2023-05-22T16:44:07.634Z,99519.31
2023-05-22T16:46:40.609Z,99521.44
2023-05-22T16:49:10.967Z,99517.69
2023-05-22T16:51:41.328Z,99513.34
2023-05-22T16:54:11.566Z,99519.78
2023-05-22T16:56:42.764Z,99513.31
2023-05-22T16:59:13.056Z,99530.13
2023-05-22T17:01:47.057Z,99530.25
2023-05-22T17:04:19.446Z,99533.53
2023-05-22T17:06:53.940Z,99535.41
2023-05-22T17:09:24.245Z,99538.00
2023-05-22T17:11:54.576Z,99542.44
2023-05-22T17:14:27.552Z,99537.50
2023-05-22T17:17:00.844Z,99541.84
2023-05-22T17:19:32.492Z,99537.59
2023-05-22T17:22:02.939Z,99537.38
2023-05-22T17:24:33.354Z,99538.50
2023-05-22T17:27:03.730Z,99536.81
2023-05-22T17:29:33.987Z,99541.03
2023-05-22T17:32:07.831Z,99543.22
2023-05-22T17:34:38.223Z,99540.50
2023-05-22T17:37:08.865Z,99532.00
2023-05-22T17:39:39.224Z,99532.38
2023-05-22T17:42:09.920Z,99535.47
2023-05-22T17:44:42.644Z,99538.53
2023-05-22T17:47:16.616Z,99541.16
2023-05-22T17:49:46.902Z,99532.75
2023-05-22T17:52:17.664Z,99535.00
2023-05-22T17:54:48.025Z,99535.94
2023-05-22T17:57:18.420Z,99539.19
2023-05-22T17:59:48.717Z,99531.06
2023-05-22T18:02:21.836Z,99537.56
2023-05-22T18:04:52.167Z,99535.63
2023-05-22T18:07:22.690Z,99539.03
2023-05-22T18:09:53.055Z,99529.59
2023-05-22T18:12:31.090Z,99535.69
2023-05-22T18:15:01.875Z,99533.09
2023-05-22T18:17:35.042Z,99530.06
2023-05-22T18:20:06.558Z,99545.59
2023-05-22T18:22:37.342Z,99542.09
2023-05-22T18:25:09.470Z,99544.41
2023-05-22T18:27:40.053Z,99545.25
2023-05-22T18:30:12.138Z,99549.34
2023-05-22T18:32:45.335Z,99549.75
2023-05-22T18:35:15.754Z,99549.56
2023-05-22T18:37:46.286Z,99555.31
2023-05-22T18:40:16.775Z,99556.53
2023-05-22T18:42:47.190Z,99560.84
2023-05-22T18:45:17.591Z,99566.44
2023-05-22T18:47:50.784Z,99561.47
2023-05-22T18:50:23.411Z,99564.16
2023-05-22T18:52:56.325Z,99567.06
2023-05-22T18:55:27.119Z,99568.69
2023-05-22T18:57:57.873Z,99562.06
2023-05-22T19:00:28.685Z,99563.09
2023-05-22T19:03:04.753Z,99563.50
2023-05-22T19:05:35.610Z,99569.81
2023-05-22T19:08:07.728Z,99568.53
2023-05-22T19:10:42.190Z,99564.63
2023-05-22T19:13:15.627Z,99568.28
2023-05-22T19:15:46.724Z,99573.66
2023-05-22T19:18:20.415Z,99570.94
2023-05-22T19:20:51.347Z,99572.94
2023-05-22T19:23:22.760Z,99572.09
2023-05-22T19:25:53.601Z,99576.78
2023-05-22T19:28:24.765Z,99580.63
2023-05-22T19:30:58.431Z,99584.91
2023-05-22T19:33:33.976Z,99576.31
2023-05-22T19:36:06.850Z,99581.66
2023-05-22T19:38:38.428Z,99593.34
2023-05-22T19:41:12.218Z,99588.69
2023-05-22T19:43:42.695Z,99588.47
2023-05-22T19:46:14.327Z,99594.56
2023-05-22T19:48:48.409Z,99589.78
2023-05-22T19:51:19.987Z,99601.06
2023-05-22T19:53:52.010Z,99598.19
2023-05-22T19:56:22.436Z,99591.13
2023-05-22T19:58:53.067Z,99600.94
2023-05-22T20:01:27.146Z,99600.50
2023-05-22T20:04:04.141Z,99593.22
2023-05-22T20:06:35.354Z,99597.03
2023-05-22T20:09:06.323Z,99596.78
2023-05-22T20:11:37.052Z,99593.81
2023-05-22T20:14:08.666Z,99600.09
2023-05-22T20:16:39.536Z,99594.94
2023-05-22T20:19:14.460Z,99591.16
2023-05-22T20:21:50.018Z,99592.56
2023-05-22T20:24:22.216Z,99595.16
2023-05-22T20:26:52.502Z,99588.91
2023-05-22T20:29:23.165Z,99590.94
2023-05-22T20:31:56.102Z,99596.47
2023-05-22T20:34:32.368Z,99591.75
2023-05-22T20:37:03.305Z,99592.31
2023-05-22T20:39:33.598Z,99587.97
2023-05-22T20:42:07.990Z,99593.53
2023-05-22T20:44:39.632Z,99602.66
2023-05-22T20:47:11.497Z,99604.88
2023-05-22T20:49:44.464Z,99605.59
2023-05-22T20:52:16.319Z,99603.69
2023-05-22T20:54:47.885Z,99607.75
2023-05-22T20:57:18.284Z,99599.44
2023-05-22T20:59:48.616Z,99598.31
2023-05-22T21:02:20.174Z,99594.34
2023-05-22T21:04:55.513Z,99600.34
2023-05-22T21:07:27.863Z,99599.97
2023-05-22T21:09:58.440Z,99594.78
2023-05-22T21:12:29.148Z,99598.06
2023-05-22T21:14:59.440Z,99599.56
2023-05-22T21:17:29.588Z,99595.75
2023-05-22T21:20:07.161Z,99598.00
2023-05-22T21:22:37.624Z,99598.88
2023-05-22T21:25:11.552Z,99589.56
2023-05-22T21:27:41.789Z,99603.94
2023-05-22T21:30:15.097Z,99607.97
2023-05-22T21:32:46.013Z,99595.28
2023-05-22T21:35:19.464Z,99607.50
2023-05-22T21:37:50.079Z,99606.22
2023-05-22T21:40:20.546Z,99607.41
2023-05-22T21:42:53.327Z,99601.78
2023-05-22T21:45:23.894Z,99601.94
2023-05-22T21:47:54.274Z,99606.63
2023-05-22T21:50:27.508Z,99603.47
2023-05-22T21:53:00.810Z,99598.31
2023-05-22T21:55:36.180Z,99592.34
2023-05-22T21:58:06.476Z,99601.53
2023-05-22T22:00:37.571Z,99590.41
2023-05-22T22:03:08.240Z,99592.59
2023-05-22T22:05:41.314Z,99593.41
2023-05-22T22:08:11.581Z,99589.28
2023-05-22T22:10:42.198Z,99596.63
2023-05-22T22:13:14.055Z,99592.13
2023-05-22T22:15:44.344Z,99597.97
2023-05-22T22:18:15.141Z,99595.66
2023-05-22T22:20:50.309Z,99601.31
2023-05-22T22:23:20.833Z,99600.16
2023-05-22T22:25:51.334Z,99599.81
2023-05-22T22:28:21.619Z,99592.81
2023-05-22T22:30:55.278Z,99598.88
2023-05-22T22:33:26.032Z,99597.94
2023-05-22T22:35:59.989Z,99596.94
2023-05-22T22:38:33.025Z,99594.44
2023-05-22T22:41:05.018Z,99593.59
2023-05-22T22:43:35.340Z,99599.94
2023-05-22T22:46:05.320Z,99599.75
2023-05-22T22:48:37.703Z,99602.44
2023-05-22T22:51:10.652Z,99600.78
2023-05-22T22:53:41.283Z,99603.78
2023-05-22T22:56:11.535Z,99602.13
2023-05-22T22:58:41.550Z,99593.59
2023-05-22T23:01:11.867Z,99589.13
2023-05-22T23:03:41.832Z,99591.97
2023-05-22T23:06:14.986Z,99591.50
2023-05-22T23:08:45.222Z,99582.88
2023-05-22T23:11:15.234Z,99582.66
2023-05-22T23:13:45.532Z,99581.19
2023-05-22T23:16:16.609Z,99579.72
2023-05-22T23:18:46.973Z,99583.72
2023-05-22T23:21:19.913Z,99584.06
2023-05-22T23:23:50.137Z,99581.25
2023-05-22T23:26:20.804Z,99573.94
2023-05-22T23:28:51.337Z,99572.75
2023-05-22T23:31:26.146Z,99573.09
2023-05-22T23:33:56.545Z,99579.44
2023-05-22T23:36:29.544Z,99574.28
2023-05-22T23:38:59.814Z,99574.63
2023-05-22T23:41:29.758Z,99576.00
2023-05-22T23:43:59.985Z,99575.50
2023-05-22T23:46:33.412Z,99567.16
2023-05-22T23:49:03.698Z,99561.53
2023-05-22T23:51:36.855Z,99568.53
2023-05-22T23:54:07.433Z,99569.19
2023-05-22T23:56:37.701Z,99567.06
2023-05-22T23:59:08.204Z,99580.53
